Marieville, Canada
Current Conditions -  °F | °C
As of 11:42 PM on Monday 20 Oct 2014 (Local Time) from CYHU Reporting Station
Overcast Overcast  
Wind Chill: 39°   Ceiling: 3500
Heat Index: 43°   Visibility: 9mi
Dew Point: 37°   Wind: 6mph
Humidity: 81%   Direction: 30°NNE
Pressure: 29.95"   Gusts: NA
Location:  45.43°N, 73.17°W
Report Text: CYHU 210342Z AUTO 03005KT 9SM BKN035 OVC045 06/03 A2995 RMK SLP142
Loading
Personal Weather Stations






























Interactive Weather Map
Tropical Storm Tracking
New forecast layout! Learn more

10-Day Weather Forecast

Advertisements
Track Severe Weather on mobile